sensor_id;sensor_type;location;lat;lon;timestamp;temperature;humidity
17452;DHT22;8843;48.838;9.324;2022-09-24T00:02:18;15.50;70.00
17452;DHT22;8843;48.838;9.324;2022-09-24T00:04:45;15.50;69.30
17452;DHT22;8843;48.838;9.324;2022-09-24T00:07:12;15.50;69.30
17452;DHT22;8843;48.838;9.324;2022-09-24T00:09:39;15.50;69.30
17452;DHT22;8843;48.838;9.324;2022-09-24T00:12:06;15.50;69.30
17452;DHT22;8843;48.838;9.324;2022-09-24T00:14:32;15.50;69.30
17452;DHT22;8843;48.838;9.324;2022-09-24T00:16:59;15.50;69.30
17452;DHT22;8843;48.838;9.324;2022-09-24T00:19:27;15.50;69.40
17452;DHT22;8843;48.838;9.324;2022-09-24T00:21:54;15.50;69.30
17452;DHT22;8843;48.838;9.324;2022-09-24T00:24:21;15.50;69.40
17452;DHT22;8843;48.838;9.324;2022-09-24T00:27:05;15.50;69.30
17452;DHT22;8843;48.838;9.324;2022-09-24T00:29:33;15.50;69.40
17452;DHT22;8843;48.838;9.324;2022-09-24T00:32:01;15.50;69.40
17452;DHT22;8843;48.838;9.324;2022-09-24T00:34:30;15.50;69.30
17452;DHT22;8843;48.838;9.324;2022-09-24T00:36:57;15.50;69.50
17452;DHT22;8843;48.838;9.324;2022-09-24T00:39:25;15.50;69.50
17452;DHT22;8843;48.838;9.324;2022-09-24T00:41:52;15.50;69.50
17452;DHT22;8843;48.838;9.324;2022-09-24T00:44:55;15.50;69.50
17452;DHT22;8843;48.838;9.324;2022-09-24T00:47:26;15.50;69.50
17452;DHT22;8843;48.838;9.324;2022-09-24T00:50:01;15.50;69.50
17452;DHT22;8843;48.838;9.324;2022-09-24T00:52:31;15.50;70.30
17452;DHT22;8843;48.838;9.324;2022-09-24T00:54:58;15.50;69.50
17452;DHT22;8843;48.838;9.324;2022-09-24T00:57:26;15.50;69.50
17452;DHT22;8843;48.838;9.324;2022-09-24T00:59:53;15.50;69.60
17452;DHT22;8843;48.838;9.324;2022-09-24T01:02:20;15.50;69.50
17452;DHT22;8843;48.838;9.324;2022-09-24T01:04:48;15.50;69.60
17452;DHT22;8843;48.838;9.324;2022-09-24T01:07:17;15.50;69.60
17452;DHT22;8843;48.838;9.324;2022-09-24T01:09:43;15.50;69.60
17452;DHT22;8843;48.838;9.324;2022-09-24T01:12:17;15.50;69.60
17452;DHT22;8843;48.838;9.324;2022-09-24T01:15:04;15.50;69.60
17452;DHT22;8843;48.838;9.324;2022-09-24T01:17:39;15.50;69.60
17452;DHT22;8843;48.838;9.324;2022-09-24T01:26:14;15.40;69.50
17452;DHT22;8843;48.838;9.324;2022-09-24T01:28:57;15.50;69.60
17452;DHT22;8843;48.838;9.324;2022-09-24T01:31:34;15.40;69.60
17452;DHT22;8843;48.838;9.324;2022-09-24T01:34:05;15.40;69.50
17452;DHT22;8843;48.838;9.324;2022-09-24T01:36:35;15.40;69.50
17452;DHT22;8843;48.838;9.324;2022-09-24T01:39:06;15.40;69.50
17452;DHT22;8843;48.838;9.324;2022-09-24T01:41:34;15.40;70.30
17452;DHT22;8843;48.838;9.324;2022-09-24T01:44:03;15.40;69.60
17452;DHT22;8843;48.838;9.324;2022-09-24T01:46:36;15.40;70.30
17452;DHT22;8843;48.838;9.324;2022-09-24T01:49:03;15.40;69.60
17452;DHT22;8843;48.838;9.324;2022-09-24T01:51:36;15.40;69.60
17452;DHT22;8843;48.838;9.324;2022-09-24T01:54:07;15.40;69.60
17452;DHT22;8843;48.838;9.324;2022-09-24T01:56:39;15.40;69.60
17452;DHT22;8843;48.838;9.324;2022-09-24T01:59:12;15.40;69.60
17452;DHT22;8843;48.838;9.324;2022-09-24T02:01:46;15.40;69.60
17452;DHT22;8843;48.838;9.324;2022-09-24T02:04:17;15.40;69.60
17452;DHT22;8843;48.838;9.324;2022-09-24T02:06:50;15.40;69.60
17452;DHT22;8843;48.838;9.324;2022-09-24T02:09:32;15.40;69.60
17452;DHT22;8843;48.838;9.324;2022-09-24T02:12:04;15.40;69.60
17452;DHT22;8843;48.838;9.324;2022-09-24T02:14:36;15.40;69.60
17452;DHT22;8843;48.838;9.324;2022-09-24T02:17:06;15.40;69.60
17452;DHT22;8843;48.838;9.324;2022-09-24T02:19:35;15.40;69.60
17452;DHT22;8843;48.838;9.324;2022-09-24T02:22:05;15.40;69.60
17452;DHT22;8843;48.838;9.324;2022-09-24T02:24:39;15.40;69.60
17452;DHT22;8843;48.838;9.324;2022-09-24T02:27:09;15.40;69.60
17452;DHT22;8843;48.838;9.324;2022-09-24T02:29:36;15.40;69.60
17452;DHT22;8843;48.838;9.324;2022-09-24T02:32:06;15.40;69.60
17452;DHT22;8843;48.838;9.324;2022-09-24T02:34:35;15.40;69.60
17452;DHT22;8843;48.838;9.324;2022-09-24T02:37:05;15.40;69.70
17452;DHT22;8843;48.838;9.324;2022-09-24T02:39:32;15.40;69.60
17452;DHT22;8843;48.838;9.324;2022-09-24T02:42:01;15.40;69.70
17452;DHT22;8843;48.838;9.324;2022-09-24T02:44:30;15.40;69.60
17452;DHT22;8843;48.838;9.324;2022-09-24T02:46:57;15.40;69.70
17452;DHT22;8843;48.838;9.324;2022-09-24T02:49:26;15.30;69.60
17452;DHT22;8843;48.838;9.324;2022-09-24T02:51:53;15.40;69.70
17452;DHT22;8843;48.838;9.324;2022-09-24T02:54:20;15.30;69.60
17452;DHT22;8843;48.838;9.324;2022-09-24T02:56:48;15.30;69.60
17452;DHT22;8843;48.838;9.324;2022-09-24T02:59:15;15.30;69.60
17452;DHT22;8843;48.838;9.324;2022-09-24T03:01:42;15.30;69.60
17452;DHT22;8843;48.838;9.324;2022-09-24T03:04:09;15.40;70.50
17452;DHT22;8843;48.838;9.324;2022-09-24T03:06:37;15.30;69.60
17452;DHT22;8843;48.838;9.324;2022-09-24T03:09:04;15.30;69.60
17452;DHT22;8843;48.838;9.324;2022-09-24T03:11:31;15.40;69.70
17452;DHT22;8843;48.838;9.324;2022-09-24T03:14:00;15.30;69.70
17452;DHT22;8843;48.838;9.324;2022-09-24T03:16:27;15.30;69.60
17452;DHT22;8843;48.838;9.324;2022-09-24T03:18:54;15.30;69.70
17452;DHT22;8843;48.838;9.324;2022-09-24T03:21:21;15.30;69.70
17452;DHT22;8843;48.838;9.324;2022-09-24T03:23:50;15.30;69.70
17452;DHT22;8843;48.838;9.324;2022-09-24T03:26:17;15.30;69.70
17452;DHT22;8843;48.838;9.324;2022-09-24T03:28:43;15.40;70.60
17452;DHT22;8843;48.838;9.324;2022-09-24T03:31:11;15.30;69.80
17452;DHT22;8843;48.838;9.324;2022-09-24T03:33:38;15.30;69.70
17452;DHT22;8843;48.838;9.324;2022-09-24T03:36:07;15.30;69.80
17452;DHT22;8843;48.838;9.324;2022-09-24T03:38:36;15.30;69.80
17452;DHT22;8843;48.838;9.324;2022-09-24T03:41:05;15.30;69.80
17452;DHT22;8843;48.838;9.324;2022-09-24T03:43:32;15.30;69.80
17452;DHT22;8843;48.838;9.324;2022-09-24T03:46:00;15.30;69.80
17452;DHT22;8843;48.838;9.324;2022-09-24T03:48:27;15.30;69.80
17452;DHT22;8843;48.838;9.324;2022-09-24T03:50:55;15.30;69.90
17452;DHT22;8843;48.838;9.324;2022-09-24T03:53:22;15.30;69.80
17452;DHT22;8843;48.838;9.324;2022-09-24T03:55:53;15.30;69.90
17452;DHT22;8843;48.838;9.324;2022-09-24T03:58:22;15.30;69.80
17452;DHT22;8843;48.838;9.324;2022-09-24T04:00:50;15.30;69.90
17452;DHT22;8843;48.838;9.324;2022-09-24T04:03:18;15.30;70.00
17452;DHT22;8843;48.838;9.324;2022-09-24T04:05:45;15.30;69.90
17452;DHT22;8843;48.838;9.324;2022-09-24T04:08:12;15.30;69.90
17452;DHT22;8843;48.838;9.324;2022-09-24T04:10:39;15.30;69.90
17452;DHT22;8843;48.838;9.324;2022-09-24T04:13:06;15.30;69.90
17452;DHT22;8843;48.838;9.324;2022-09-24T04:15:34;15.30;69.90
17452;DHT22;8843;48.838;9.324;2022-09-24T04:18:01;15.30;70.00
17452;DHT22;8843;48.838;9.324;2022-09-24T04:20:28;15.30;70.00
17452;DHT22;8843;48.838;9.324;2022-09-24T04:22:56;15.30;70.00
17452;DHT22;8843;48.838;9.324;2022-09-24T04:25:26;15.30;70.00
17452;DHT22;8843;48.838;9.324;2022-09-24T04:27:56;15.30;70.10
17452;DHT22;8843;48.838;9.324;2022-09-24T04:30:24;15.30;70.00
17452;DHT22;8843;48.838;9.324;2022-09-24T04:32:53;15.30;70.00
17452;DHT22;8843;48.838;9.324;2022-09-24T04:35:21;15.30;70.00
17452;DHT22;8843;48.838;9.324;2022-09-24T04:37:49;15.30;70.10
17452;DHT22;8843;48.838;9.324;2022-09-24T04:40:16;15.30;70.10
17452;DHT22;8843;48.838;9.324;2022-09-24T04:42:43;15.20;70.00
17452;DHT22;8843;48.838;9.324;2022-09-24T04:45:11;15.20;70.10
17452;DHT22;8843;48.838;9.324;2022-09-24T04:47:39;15.20;70.00
17452;DHT22;8843;48.838;9.324;2022-09-24T04:50:09;15.20;70.00
17452;DHT22;8843;48.838;9.324;2022-09-24T04:52:37;15.20;70.00
17452;DHT22;8843;48.838;9.324;2022-09-24T04:55:04;15.20;70.10
17452;DHT22;8843;48.838;9.324;2022-09-24T04:57:32;15.20;70.10
17452;DHT22;8843;48.838;9.324;2022-09-24T05:00:01;15.20;70.10
17452;DHT22;8843;48.838;9.324;2022-09-24T05:02:28;15.20;70.20
17452;DHT22;8843;48.838;9.324;2022-09-24T05:04:55;15.20;70.90
17452;DHT22;8843;48.838;9.324;2022-09-24T05:07:24;15.20;70.10
17452;DHT22;8843;48.838;9.324;2022-09-24T05:09:50;14.90;73.00
17452;DHT22;8843;48.838;9.324;2022-09-24T05:12:17;15.20;73.90
17452;DHT22;8843;48.838;9.324;2022-09-24T05:14:45;15.30;72.30
17452;DHT22;8843;48.838;9.324;2022-09-24T05:17:13;15.30;71.20
17452;DHT22;8843;48.838;9.324;2022-09-24T05:19:40;15.30;71.10
17452;DHT22;8843;48.838;9.324;2022-09-24T05:22:07;15.30;71.10
17452;DHT22;8843;48.838;9.324;2022-09-24T05:24:35;15.20;71.10
17452;DHT22;8843;48.838;9.324;2022-09-24T05:27:02;15.20;71.00
17452;DHT22;8843;48.838;9.324;2022-09-24T05:29:35;15.20;71.00
17452;DHT22;8843;48.838;9.324;2022-09-24T05:32:03;15.20;70.90
17452;DHT22;8843;48.838;9.324;2022-09-24T05:34:31;15.20;70.90
17452;DHT22;8843;48.838;9.324;2022-09-24T05:36:58;15.20;70.90
17452;DHT22;8843;48.838;9.324;2022-09-24T05:39:25;15.20;70.80
17452;DHT22;8843;48.838;9.324;2022-09-24T05:41:53;15.20;70.90
17452;DHT22;8843;48.838;9.324;2022-09-24T05:44:20;15.20;71.60
17452;DHT22;8843;48.838;9.324;2022-09-24T05:46:47;15.20;70.80
17452;DHT22;8843;48.838;9.324;2022-09-24T05:49:14;15.20;70.80
17452;DHT22;8843;48.838;9.324;2022-09-24T05:51:41;15.20;70.80
17452;DHT22;8843;48.838;9.324;2022-09-24T05:54:08;15.20;70.70
17452;DHT22;8843;48.838;9.324;2022-09-24T05:56:36;15.20;70.80
17452;DHT22;8843;48.838;9.324;2022-09-24T05:59:04;15.20;70.80
17452;DHT22;8843;48.838;9.324;2022-09-24T06:01:31;15.20;70.70
17452;DHT22;8843;48.838;9.324;2022-09-24T06:03:59;15.20;70.70
17452;DHT22;8843;48.838;9.324;2022-09-24T06:06:26;15.20;70.80
17452;DHT22;8843;48.838;9.324;2022-09-24T06:08:54;15.30;72.80
17452;DHT22;8843;48.838;9.324;2022-09-24T06:11:21;15.20;72.70
17452;DHT22;8843;48.838;9.324;2022-09-24T06:13:48;15.30;72.10
17452;DHT22;8843;48.838;9.324;2022-09-24T06:16:17;15.20;72.20
17452;DHT22;8843;48.838;9.324;2022-09-24T06:18:44;15.20;72.20
17452;DHT22;8843;48.838;9.324;2022-09-24T06:21:13;15.10;72.10
17452;DHT22;8843;48.838;9.324;2022-09-24T06:23:41;15.10;72.10
17452;DHT22;8843;48.838;9.324;2022-09-24T06:26:11;15.10;72.10
17452;DHT22;8843;48.838;9.324;2022-09-24T06:28:38;15.10;71.90
17452;DHT22;8843;48.838;9.324;2022-09-24T06:31:06;15.10;72.00
17452;DHT22;8843;48.838;9.324;2022-09-24T06:33:35;15.10;71.90
17452;DHT22;8843;48.838;9.324;2022-09-24T06:36:03;15.10;71.80
17452;DHT22;8843;48.838;9.324;2022-09-24T06:38:30;15.10;71.70
17452;DHT22;8843;48.838;9.324;2022-09-24T06:40:58;15.10;71.70
17452;DHT22;8843;48.838;9.324;2022-09-24T06:43:25;15.10;72.50
17452;DHT22;8843;48.838;9.324;2022-09-24T06:45:54;15.10;71.70
17452;DHT22;8843;48.838;9.324;2022-09-24T06:48:21;15.10;71.60
17452;DHT22;8843;48.838;9.324;2022-09-24T06:50:49;15.10;71.60
17452;DHT22;8843;48.838;9.324;2022-09-24T06:53:16;14.90;72.00
17452;DHT22;8843;48.838;9.324;2022-09-24T06:55:44;14.80;73.10
17452;DHT22;8843;48.838;9.324;2022-09-24T06:58:12;14.70;73.50
17452;DHT22;8843;48.838;9.324;2022-09-24T07:00:40;14.70;73.50
17452;DHT22;8843;48.838;9.324;2022-09-24T07:03:13;14.70;73.60
17452;DHT22;8843;48.838;9.324;2022-09-24T07:05:41;14.60;73.90
17452;DHT22;8843;48.838;9.324;2022-09-24T07:08:09;14.60;74.70
17452;DHT22;8843;48.838;9.324;2022-09-24T07:10:36;14.70;73.80
17452;DHT22;8843;48.838;9.324;2022-09-24T07:13:04;14.60;73.90
17452;DHT22;8843;48.838;9.324;2022-09-24T07:15:31;14.60;74.20
17452;DHT22;8843;48.838;9.324;2022-09-24T07:17:57;14.70;74.10
17452;DHT22;8843;48.838;9.324;2022-09-24T07:20:24;14.60;74.30
17452;DHT22;8843;48.838;9.324;2022-09-24T07:22:52;14.60;74.20
17452;DHT22;8843;48.838;9.324;2022-09-24T07:25:21;14.70;74.00
17452;DHT22;8843;48.838;9.324;2022-09-24T07:27:48;14.70;74.30
17452;DHT22;8843;48.838;9.324;2022-09-24T07:30:15;14.70;74.30
17452;DHT22;8843;48.838;9.324;2022-09-24T07:32:42;14.60;74.40
17452;DHT22;8843;48.838;9.324;2022-09-24T07:35:09;14.70;74.40
17452;DHT22;8843;48.838;9.324;2022-09-24T07:37:36;14.60;74.50
17452;DHT22;8843;48.838;9.324;2022-09-24T07:40:03;14.60;74.50
17452;DHT22;8843;48.838;9.324;2022-09-24T07:42:31;14.60;74.80
17452;DHT22;8843;48.838;9.324;2022-09-24T07:44:58;14.70;74.90
17452;DHT22;8843;48.838;9.324;2022-09-24T07:47:25;14.60;75.20
17452;DHT22;8843;48.838;9.324;2022-09-24T07:49:52;14.60;75.10
17452;DHT22;8843;48.838;9.324;2022-09-24T07:52:19;14.60;75.40
17452;DHT22;8843;48.838;9.324;2022-09-24T07:54:46;14.60;75.30
17452;DHT22;8843;48.838;9.324;2022-09-24T07:57:13;14.60;76.10
17452;DHT22;8843;48.838;9.324;2022-09-24T07:59:41;14.60;75.30
17452;DHT22;8843;48.838;9.324;2022-09-24T08:02:14;14.60;75.50
17452;DHT22;8843;48.838;9.324;2022-09-24T08:04:42;14.60;75.70
17452;DHT22;8843;48.838;9.324;2022-09-24T08:07:09;15.00;74.50
17452;DHT22;8843;48.838;9.324;2022-09-24T08:09:36;15.20;73.80
17452;DHT22;8843;48.838;9.324;2022-09-24T08:12:03;15.20;73.60
17452;DHT22;8843;48.838;9.324;2022-09-24T08:14:30;15.20;73.50
17452;DHT22;8843;48.838;9.324;2022-09-24T08:16:59;15.20;73.50
17452;DHT22;8843;48.838;9.324;2022-09-24T08:19:27;15.20;73.40
17452;DHT22;8843;48.838;9.324;2022-09-24T08:21:55;15.10;74.20
17452;DHT22;8843;48.838;9.324;2022-09-24T08:24:23;15.10;74.60
17452;DHT22;8843;48.838;9.324;2022-09-24T08:26:50;15.10;74.60
17452;DHT22;8843;48.838;9.324;2022-09-24T08:29:17;15.10;74.80
17452;DHT22;8843;48.838;9.324;2022-09-24T08:31:44;15.10;74.60
17452;DHT22;8843;48.838;9.324;2022-09-24T08:34:12;15.10;74.30
17452;DHT22;8843;48.838;9.324;2022-09-24T08:36:39;15.10;74.30
17452;DHT22;8843;48.838;9.324;2022-09-24T08:39:06;15.10;74.00
17452;DHT22;8843;48.838;9.324;2022-09-24T08:41:48;15.20;74.00
17452;DHT22;8843;48.838;9.324;2022-09-24T08:44:21;15.20;74.00
17452;DHT22;8843;48.838;9.324;2022-09-24T08:47:07;15.10;73.80
17452;DHT22;8843;48.838;9.324;2022-09-24T08:49:57;15.10;73.70
17452;DHT22;8843;48.838;9.324;2022-09-24T08:52:38;15.10;73.60
17452;DHT22;8843;48.838;9.324;2022-09-24T08:55:10;15.10;73.70
17452;DHT22;8843;48.838;9.324;2022-09-24T08:57:43;15.20;73.60
17452;DHT22;8843;48.838;9.324;2022-09-24T09:00:15;15.10;73.50
17452;DHT22;8843;48.838;9.324;2022-09-24T09:02:50;15.20;74.20
17452;DHT22;8843;48.838;9.324;2022-09-24T09:05:24;15.10;73.60
17452;DHT22;8843;48.838;9.324;2022-09-24T09:07:59;15.10;73.50
17452;DHT22;8843;48.838;9.324;2022-09-24T09:10:31;15.10;74.30
17452;DHT22;8843;48.838;9.324;2022-09-24T09:13:04;15.10;74.30
